This is the latest recevied weather packets stored in our database for station/object YC0TBU-3. If no packets are shown the sender has not sent any weather packets the latest 10 day(s).
| Time | Temp. | Humidity | Pressure | Rain* | Wind** | Luminosity | Snow |
|---|---|---|---|---|---|---|---|
| 1787534915 | 30° C | 60% | 1018.3 hPa | - | - | - | - |
| 1787533215 | 29.44° C | 66% | 1018.4 hPa | - | - | - | - |
| 1787531515 | 28.89° C | 68% | 1017 hPa | - | - | - | - |
| 1787529825 | 29.44° C | 65% | 1017 hPa | - | - | - | - |
| 1787528099 | 27.78° C | 42% | - | - | - | - | - |
| 1787526400 | 27.22° C | 71% | 1016.4 hPa | - | - | - | - |
| 1787524699 | 27.78° C | 69% | 1015.7 hPa | - | - | - | - |
| 1787522999 | 28.33° C | 67% | 1016.3 hPa | - | - | - | - |
| 1787521299 | 29.44° C | 63% | 1014.6 hPa | - | - | - | - |
| 1787519599 | 29.44° C | 64% | 1014.9 hPa | - | - | - | - |
| 1787517899 | 30.56° C | 61% | 1014.6 hPa | - | - | - | - |
| 1787516199 | 30.56° C | 61% | 1015.6 hPa | - | - | - | - |
| 1787514500 | 29.44° C | 63% | 1016.7 hPa | - | - | - | - |
| 1787512800 | 31.11° C | 60% | 1015.6 hPa | - | - | - | - |
| 1787511100 | 30.56° C | 62% | 1015.1 hPa | - | - | - | - |
| 1787509400 | 31.11° C | 64% | 1016.1 hPa | - | - | - | - |
| 1787507711 | 31.11° C | 64% | 1015.8 hPa | - | - | - | - |
| 1787506000 | 31.11° C | 64% | 1016.4 hPa | - | - | - | - |
| 1787504300 | 31.67° C | 63% | 1017.6 hPa | - | - | - | - |
| 1787502600 | 31.67° C | 63% | 1016.6 hPa | - | - | - | - |
| 1787500900 | 31.67° C | 63% | 1015.8 hPa | - | - | - | - |
| 1787499200 | 31.67° C | 62% | 1015.5 hPa | - | - | - | - |
| 1787497500 | 32.22° C | 59% | 1017.1 hPa | - | - | - | - |
| 1787495800 | 32.22° C | 58% | 1016.5 hPa | - | - | - | - |
| 1787494100 | 32.22° C | 57% | 1017.8 hPa | - | - | - | - |
* Rain since midnight (hover to see other rain measurements)
** Current wind speed in m/s (hover to see current wind gust speed)